Terminal Aerodrome Forecast
Issued by NWS Grand Forks, ND

Home | Current Version | Previous Version | Text Only | Print | Product List | Glossary Off
Versions: 1 2 3 4 5 6 7 8 9 10 11 12 13 14 15 16 17 18 19

000
FTUS43 KFGF 291140
TAFGFK
TAF
KGFK 291140Z 2912/3012 35023G30KT P6SM OVC012
     FM291800 36016G24KT P6SM BKN022
     FM300100 35010KT P6SM SCT030=

USA.gov is the U.S. government's official web portal to all federal, state and local government web resources and services.